Time;durP1;ratioP1;P1;durP2;ratioP2;P2;SDS_P1;SDS_P2;PMS_P1;PMS_P2;Temp;Humidity;BMP_temperature;BMP_pressure;BME280_temperature;BME280_humidity;BME280_pressure;Samples;Min_cycle;Max_cycle;Signal;HPM_P1;HPM_P2
2023/01/30 00:01:32;;;;;;;57.58;26.20;;;;;;;5.57;100.00;101487.94;4993955;28;20045;-74
2023/01/30 00:03:58;;;;;;;57.00;28.58;;;;;;;5.63;100.00;101489.38;5019822;28;20053;-73
2023/01/30 00:06:24;;;;;;;58.50;26.38;;;;;;;5.57;100.00;101482.41;5017209;28;20111;-74
2023/01/30 00:08:49;;;;;;;54.70;26.42;;;;;;;5.62;100.00;101485.00;5016217;28;20033;-74
2023/01/30 00:11:16;;;;;;;50.75;26.35;;;;;;;5.59;100.00;101472.59;5018452;28;20108;-74
2023/01/30 00:13:42;;;;;;;56.35;28.25;;;;;;;5.63;100.00;101467.16;5017907;28;20053;-74
2023/01/30 00:16:08;;;;;;;56.20;27.92;;;;;;;5.59;100.00;101466.22;5019764;28;20035;-74
2023/01/30 00:18:35;;;;;;;64.95;28.67;;;;;;;5.64;100.00;101460.47;5022806;28;20037;-73
2023/01/30 00:21:03;;;;;;;56.58;26.40;;;;;;;5.67;100.00;101454.25;5021137;28;20576;-75
2023/01/30 00:23:32;;;;;;;63.30;27.50;;;;;;;5.64;100.00;101452.16;5021445;28;20070;-73
2023/01/30 00:25:58;;;;;;;52.67;25.75;;;;;;;5.68;100.00;101444.78;5021652;28;20134;-73
2023/01/30 00:28:23;;;;;;;47.45;25.65;;;;;;;5.66;100.00;101438.75;5019303;28;20065;-74
2023/01/30 00:30:50;;;;;;;52.28;24.48;;;;;;;5.68;100.00;101436.47;5013158;28;20710;-73
2023/01/30 00:33:16;;;;;;;50.03;24.83;;;;;;;5.72;100.00;101398.53;5003565;28;20033;-74
2023/01/30 00:35:52;;;;;;;57.35;25.55;;;;;;;5.75;100.00;101392.31;5015284;28;20611;-74
2023/01/30 00:38:18;;;;;;;54.05;24.33;;;;;;;5.69;100.00;101376.97;5021633;28;20030;-74
2023/01/30 00:40:44;;;;;;;58.55;27.70;;;;;;;5.72;100.00;101381.88;5022312;28;20040;-73
2023/01/30 00:48:46;;;;;;;54.72;25.90;;;;;;;5.73;100.00;101364.03;5022630;28;20056;-74
2023/01/30 00:51:12;;;;;;;52.70;24.08;;;;;;;5.76;100.00;101371.72;5020507;28;20520;-74
2023/01/30 00:53:37;;;;;;;53.13;26.02;;;;;;;5.76;100.00;101371.72;5020382;28;20131;-73
2023/01/30 00:56:03;;;;;;;42.60;22.20;;;;;;;5.76;100.00;101348.69;5023704;28;20042;-74
2023/01/30 00:58:28;;;;;;;50.25;24.15;;;;;;;5.76;100.00;101334.81;5020625;28;20029;-73
2023/01/30 01:00:55;;;;;;;47.75;21.83;;;;;;;5.73;100.00;101327.94;5021604;28;20108;-73
2023/01/30 01:03:21;;;;;;;41.38;21.55;;;;;;;5.76;100.00;101321.72;5004734;28;20033;-73
2023/01/30 01:05:46;;;;;;;46.33;22.45;;;;;;;5.81;100.00;101318.75;5018418;28;20115;-74
2023/01/30 01:08:11;;;;;;;43.53;23.17;;;;;;;5.81;100.00;101324.31;5015094;28;20051;-73
2023/01/30 01:10:37;;;;;;;54.00;23.05;;;;;;;5.89;100.00;101319.88;5021476;28;20044;-74
2023/01/30 05:16:28;;;;;;;19.70;5.47;;;;;;;6.16;100.00;101245.50;4808826;24;20059;-74
2023/01/30 05:18:54;;;;;;;20.05;4.88;;;;;;;6.16;100.00;101251.88;4811696;29;20047;-74
2023/01/30 05:21:25;;;;;;;16.05;3.75;;;;;;;6.15;100.00;101249.44;4807012;29;20118;-73
2023/01/30 05:23:52;;;;;;;14.93;4.30;;;;;;;6.20;100.00;101263.13;4808021;29;20376;-74
2023/01/30 05:26:17;;;;;;;16.52;3.70;;;;;;;6.15;100.00;101266.91;4834657;24;20051;-74
2023/01/30 05:28:43;;;;;;;24.65;6.68;;;;;;;6.12;100.00;101269.59;4776982;29;20118;-75
2023/01/30 05:31:11;;;;;;;17.98;4.88;;;;;;;6.09;100.00;101265.50;4772156;29;20108;-74
2023/01/30 05:33:38;;;;;;;21.67;4.22;;;;;;;6.06;100.00;101269.75;4788294;29;20589;-73
2023/01/30 05:36:04;;;;;;;16.10;4.82;;;;;;;6.07;100.00;101270.56;4802638;29;20134;-76
2023/01/30 05:38:29;;;;;;;12.35;4.28;;;;;;;6.02;100.00;101270.78;4774312;29;20105;-74
2023/01/30 05:41:06;;;;;;;17.65;4.07;;;;;;;5.98;100.00;101269.81;4785323;29;20096;-74
2023/01/30 05:43:32;;;;;;;11.77;3.67;;;;;;;5.94;100.00;101272.41;4767497;29;20396;-76
2023/01/30 05:46:00;;;;;;;16.80;3.85;;;;;;;5.94;100.00;101274.41;4768797;29;20083;-76
2023/01/30 05:48:27;;;;;;;20.25;4.60;;;;;;;5.90;100.00;101283.41;4767977;29;20054;-75
2023/01/30 05:50:54;;;;;;;12.90;3.42;;;;;;;5.90;100.00;101282.59;4773694;29;20130;-74
2023/01/30 05:53:20;;;;;;;24.75;5.07;;;;;;;5.84;100.00;101276.44;4776945;29;20032;-74
2023/01/30 05:55:53;;;;;;;21.35;6.63;;;;;;;5.83;100.00;101283.13;4779532;29;20031;-74
2023/01/30 05:58:18;;;;;;;14.52;4.18;;;;;;;5.80;100.00;101275.47;4783184;29;20071;-75
2023/01/30 06:00:43;;;;;;;11.63;4.35;;;;;;;5.81;100.00;101281.81;4773332;29;20043;-75
2023/01/30 06:03:09;;;;;;;19.48;4.03;;;;;;;5.80;100.00;101274.66;4772744;29;20074;-74
2023/01/30 06:05:37;;;;;;;15.55;3.85;;;;;;;5.78;100.00;101275.00;4772352;29;20046;-75
2023/01/30 06:08:02;;;;;;;16.02;4.55;;;;;;;5.79;100.00;101286.91;4773938;30;20035;-74
2023/01/30 06:10:28;;;;;;;23.77;6.30;;;;;;;5.76;100.00;101288.41;4768334;29;20046;-74
2023/01/30 06:12:53;;;;;;;25.15;6.47;;;;;;;5.72;100.00;101298.53;4771023;29;20468;-76
2023/01/30 06:15:18;;;;;;;17.05;4.25;;;;;;;5.73;100.00;101286.28;4772323;29;20084;-76
2023/01/30 06:17:43;;;;;;;16.98;4.22;;;;;;;5.70;100.00;101287.75;4781275;29;20321;-76
2023/01/30 06:20:11;;;;;;;18.75;4.97;;;;;;;5.63;100.00;101290.25;4773454;30;20047;-73
2023/01/30 06:22:37;;;;;;;24.65;5.05;;;;;;;5.65;100.00;101278.78;4771087;29;20042;-74
2023/01/30 06:25:03;;;;;;;26.00;7.07;;;;;;;5.64;100.00;101275.22;4776105;29;20080;-73
2023/01/30 06:27:28;;;;;;;25.17;5.50;;;;;;;5.59;100.00;101285.72;4802115;29;20050;-75
2023/01/30 06:29:53;;;;;;;15.50;3.65;;;;;;;5.63;100.00;101279.16;4790092;29;20063;-75
2023/01/30 06:32:19;;;;;;;18.33;4.00;;;;;;;5.62;100.00;101282.25;4786621;29;20062;-73
2023/01/30 06:34:44;;;;;;;18.40;4.40;;;;;;;5.63;100.00;101297.75;4790463;29;20023;-74
2023/01/30 06:37:09;;;;;;;26.05;5.00;;;;;;;5.50;100.00;101292.13;4793898;29;20389;-75
2023/01/30 06:39:35;;;;;;;18.80;4.82;;;;;;;5.48;100.00;101294.41;4804756;29;20069;-75
2023/01/30 06:42:00;;;;;;;23.58;3.60;;;;;;;5.57;100.00;101283.25;4793096;29;20133;-73
2023/01/30 06:44:25;;;;;;;21.25;4.10;;;;;;;5.52;100.00;101290.97;4790249;29;20122;-74
2023/01/30 06:46:51;;;;;;;21.58;3.78;;;;;;;5.40;100.00;101302.78;4786739;29;20038;-74
2023/01/30 06:49:17;;;;;;;22.42;4.22;;;;;;;5.40;100.00;101298.03;4794017;29;20141;-74
2023/01/30 06:51:42;;;;;;;20.40;4.75;;;;;;;5.44;100.00;101304.56;4794233;29;20115;-74
2023/01/30 06:54:07;;;;;;;24.08;6.25;;;;;;;5.42;100.00;101301.28;4800914;29;20031;-74
2023/01/30 06:56:32;;;;;;;25.88;5.32;;;;;;;5.47;100.00;101309.44;4789362;29;20114;-74
2023/01/30 06:58:58;;;;;;;19.33;5.30;;;;;;;5.38;100.00;101311.44;4792798;29;20031;-74
2023/01/30 07:01:23;;;;;;;23.35;4.47;;;;;;;5.42;100.00;101317.97;4788734;29;20027;-74
2023/01/30 07:03:48;;;;;;;32.35;4.03;;;;;;;5.37;100.00;101320.91;4793825;29;20570;-75
2023/01/30 07:06:14;;;;;;;18.30;3.22;;;;;;;5.40;100.00;101322.22;4788110;29;20077;-76
2023/01/30 07:08:39;;;;;;;16.75;3.60;;;;;;;5.55;100.00;101345.84;4777284;29;20097;-72
2023/01/30 07:11:05;;;;;;;17.50;4.15;;;;;;;6.07;100.00;101331.72;4806865;29;20042;-73
2023/01/30 07:13:31;;;;;;;22.23;3.83;;;;;;;5.76;100.00;101335.63;4790877;29;20493;-73
2023/01/30 07:15:56;;;;;;;19.45;4.43;;;;;;;5.58;100.00;101334.88;4788506;29;20050;-75
2023/01/30 07:18:21;;;;;;;24.30;5.22;;;;;;;5.57;100.00;101335.22;4787557;29;20501;-73
2023/01/30 07:20:48;;;;;;;19.33;3.80;;;;;;;5.57;100.00;101332.44;4799088;29;20475;-74
2023/01/30 07:23:13;;;;;;;25.30;4.88;;;;;;;5.58;100.00;101336.84;4794209;29;20049;-73
2023/01/30 07:25:38;;;;;;;17.85;4.80;;;;;;;5.62;100.00;101332.25;4796529;29;20043;-73
2023/01/30 07:28:04;;;;;;;26.65;6.03;;;;;;;5.59;100.00;101332.94;4794250;29;20142;-74
2023/01/30 07:30:34;;;;;;;30.02;5.38;;;;;;;5.58;100.00;101325.72;4788577;29;20027;-75
2023/01/30 07:33:01;;;;;;;19.30;4.75;;;;;;;5.63;100.00;101331.91;4794324;29;20034;-74
2023/01/30 07:35:30;;;;;;;24.42;4.38;;;;;;;5.54;100.00;101319.22;4793401;29;20051;-72
2023/01/30 07:37:56;;;;;;;24.10;5.85;;;;;;;5.61;100.00;101325.06;4794316;29;20387;-73
2023/01/30 07:40:22;;;;;;;25.05;4.57;;;;;;;5.69;100.00;101338.09;4794695;29;20045;-74
2023/01/30 07:42:59;;;;;;;21.05;4.63;;;;;;;5.65;100.00;101342.66;4799075;29;20058;-72
2023/01/30 07:45:27;;;;;;;19.05;4.63;;;;;;;5.68;100.00;101347.56;4796006;29;20495;-73
2023/01/30 07:47:52;;;;;;;27.65;5.57;;;;;;;5.73;100.00;101354.91;4799517;29;20113;-72
2023/01/30 07:50:18;;;;;;;23.88;4.82;;;;;;;5.70;100.00;101354.44;4800185;29;20176;-72
2023/01/30 07:52:43;;;;;;;19.55;5.00;;;;;;;5.69;100.00;101346.41;4797945;29;20492;-72
2023/01/30 07:55:09;;;;;;;19.52;4.78;;;;;;;5.62;100.00;101355.28;4791833;29;20031;-73
2023/01/30 07:57:34;;;;;;;22.42;5.57;;;;;;;5.68;100.00;101348.38;4800021;29;20514;-72
2023/01/30 07:59:59;;;;;;;21.73;6.22;;;;;;;5.65;100.00;101354.63;4796928;29;20483;-75
2023/01/30 08:02:25;;;;;;;24.17;5.00;;;;;;;5.70;100.00;101367.50;4795882;29;20027;-73
2023/01/30 08:04:50;;;;;;;32.83;7.10;;;;;;;5.65;100.00;101353.78;4797953;29;20031;-73
2023/01/30 08:07:15;;;;;;;22.50;4.20;;;;;;;5.68;100.00;101369.81;4799730;29;20031;-72
2023/01/30 08:09:41;;;;;;;33.05;7.05;;;;;;;5.71;100.00;101369.13;4795753;29;20126;-73
2023/01/30 08:12:06;;;;;;;19.95;4.95;;;;;;;5.72;100.00;101362.44;4810451;29;20118;-73
2023/01/30 08:14:31;;;;;;;21.17;4.60;;;;;;;5.67;100.00;101368.16;4795782;29;20060;-72
2023/01/30 08:16:57;;;;;;;28.67;6.50;;;;;;;5.68;100.00;101369.81;4810758;29;20038;-73
2023/01/30 08:19:22;;;;;;;16.38;4.90;;;;;;;5.76;100.00;101379.25;4796390;29;20038;-74
2023/01/30 08:21:47;;;;;;;20.33;4.82;;;;;;;5.73;100.00;101366.81;4797277;29;20068;-74
2023/01/30 08:24:13;;;;;;;25.58;5.75;;;;;;;5.68;100.00;101392.03;4798441;29;20095;-72
2023/01/30 08:26:38;;;;;;;24.63;5.57;;;;;;;5.66;100.00;101366.53;4799283;29;20462;-74
2023/01/30 08:29:04;;;;;;;21.27;5.40;;;;;;;5.64;100.00;101372.41;4798598;29;20043;-72
2023/01/30 08:31:29;;;;;;;22.50;4.90;;;;;;;5.66;100.00;101377.66;4788484;29;20041;-73
2023/01/30 08:33:54;;;;;;;21.92;4.70;;;;;;;5.67;100.00;101376.47;4791883;29;20420;-72
2023/01/30 08:36:20;;;;;;;19.45;5.65;;;;;;;5.68;100.00;101386.47;4795651;29;20400;-72
2023/01/30 08:38:45;;;;;;;20.38;4.50;;;;;;;5.69;100.00;101382.53;4795885;29;20073;-72
2023/01/30 08:41:10;;;;;;;17.60;5.40;;;;;;;5.71;100.00;101399.69;4797882;29;20051;-73
2023/01/30 08:43:36;;;;;;;16.90;4.05;;;;;;;5.68;100.00;101392.03;4798960;29;20122;-72
2023/01/30 08:46:01;;;;;;;23.50;4.93;;;;;;;5.69;100.00;101388.06;4794761;29;20536;-72
2023/01/30 08:48:27;;;;;;;26.40;6.63;;;;;;;5.70;100.00;101398.06;4799112;29;20080;-73
2023/01/30 08:50:55;;;;;;;22.92;5.28;;;;;;;5.69;100.00;101397.25;4798513;29;20122;-73
2023/01/30 08:53:21;;;;;;;16.42;5.57;;;;;;;5.72;100.00;101404.09;4792357;29;20874;-72
2023/01/30 08:55:51;;;;;;;28.70;9.25;;;;;;;5.78;100.00;101404.75;4795709;29;20034;-73
2023/01/30 08:58:18;;;;;;;31.25;6.28;;;;;;;5.78;100.00;101408.31;4794306;29;20042;-72
2023/01/30 09:00:43;;;;;;;22.83;4.80;;;;;;;5.84;100.00;101412.56;4794235;29;20129;-72
2023/01/30 09:03:09;;;;;;;26.98;5.68;;;;;;;5.85;100.00;101408.63;4795503;29;20050;-73
2023/01/30 09:05:35;;;;;;;19.45;4.63;;;;;;;5.85;100.00;101405.84;4794139;29;20034;-73
2023/01/30 09:08:00;;;;;;;28.73;5.10;;;;;;;5.89;100.00;101408.78;4799213;29;20039;-72
2023/01/30 09:10:25;;;;;;;26.75;5.90;;;;;;;5.86;100.00;101401.94;4790566;29;20137;-73
2023/01/30 09:12:51;;;;;;;38.67;7.50;;;;;;;5.88;100.00;101413.53;4796813;29;20031;-72
2023/01/30 09:15:16;;;;;;;24.50;5.97;;;;;;;5.88;100.00;101407.97;4793367;29;20034;-73
2023/01/30 09:17:43;;;;;;;24.33;5.53;;;;;;;5.92;100.00;101402.53;4795395;29;20027;-72
2023/01/30 09:20:09;;;;;;;36.13;4.70;;;;;;;5.87;100.00;101409.09;4793701;29;20083;-73
2023/01/30 09:22:35;;;;;;;15.13;5.10;;;;;;;5.89;100.00;101409.56;4793504;29;20488;-74
2023/01/30 09:25:00;;;;;;;22.88;5.82;;;;;;;5.89;100.00;101401.25;4798154;29;20046;-73
2023/01/30 09:27:26;;;;;;;26.23;5.95;;;;;;;5.95;100.00;101401.09;4805017;29;20026;-74
2023/01/30 09:29:51;;;;;;;24.77;7.25;;;;;;;5.94;100.00;101416.09;4792079;29;20054;-72
2023/01/30 09:32:16;;;;;;;25.20;4.40;;;;;;;5.92;100.00;101427.53;4799976;29;20101;-72
2023/01/30 09:34:42;;;;;;;13.95;3.97;;;;;;;5.97;100.00;101421.03;4797655;29;20528;-73
2023/01/30 09:37:08;;;;;;;31.90;5.57;;;;;;;5.96;100.00;101411.06;4797015;29;20031;-72
2023/01/30 09:39:33;;;;;;;27.25;6.00;;;;;;;5.94;100.00;101435.56;4795062;29;20047;-72
2023/01/30 09:42:41;;;;;;;30.35;6.47;;;;;;;6.03;100.00;101406.63;4801797;29;20042;-72
2023/01/30 09:45:13;;;;;;;20.92;5.78;;;;;;;6.00;100.00;101420.34;4795830;29;20047;-72
2023/01/30 09:47:51;;;;;;;26.00;5.40;;;;;;;6.06;100.00;101407.91;4797673;29;20031;-72
2023/01/30 09:50:32;;;;;;;20.42;4.25;;;;;;;6.13;100.00;101435.97;4793615;29;20568;-72
2023/01/30 09:53:11;;;;;;;24.80;6.32;;;;;;;6.12;100.00;101428.81;4799795;29;20435;-72
2023/01/30 09:55:40;;;;;;;28.67;5.35;;;;;;;6.06;100.00;101438.47;4796283;29;20031;-72
2023/01/30 09:58:16;;;;;;;24.27;5.05;;;;;;;6.07;100.00;101420.63;4795326;29;20031;-72
2023/01/30 10:00:41;;;;;;;29.08;6.00;;;;;;;6.08;100.00;101423.09;4794586;29;20049;-73
2023/01/30 10:03:13;;;;;;;29.27;5.05;;;;;;;6.09;100.00;101408.06;4794267;29;20031;-73
2023/01/30 10:05:47;;;;;;;16.23;3.88;;;;;;;6.10;100.00;101434.69;4793463;29;20027;-73
2023/01/30 10:08:24;;;;;;;21.58;4.82;;;;;;;6.11;100.00;101421.59;4794079;29;20054;-72
2023/01/30 10:11:22;;;;;;;20.58;3.95;;;;;;;6.14;100.00;101436.81;4796302;29;20042;-72
2023/01/30 10:14:01;;;;;;;23.42;3.90;;;;;;;6.04;100.00;101432.44;4771507;29;20473;-75
2023/01/30 10:16:45;;;;;;;22.40;4.38;;;;;;;6.08;100.00;101438.97;4797385;29;20546;-73
2023/01/30 10:19:46;;;;;;;23.40;5.85;;;;;;;6.17;100.00;101430.59;4795637;29;20472;-75
2023/01/30 10:22:36;;;;;;;11.88;4.32;;;;;;;6.20;100.00;101435.47;4771749;29;20500;-75
2023/01/30 10:25:20;;;;;;;20.20;4.68;;;;;;;6.27;100.00;101436.56;4798133;29;20035;-75
2023/01/30 10:27:52;;;;;;;18.52;4.55;;;;;;;6.20;100.00;101441.84;4797852;29;20035;-74
2023/01/30 10:30:19;;;;;;;39.78;5.65;;;;;;;6.22;100.00;101439.56;4792973;29;20087;-74
2023/01/30 10:33:01;;;;;;;32.13;5.20;;;;;;;6.22;100.00;101439.56;4788801;29;20412;-72
2023/01/30 10:35:33;;;;;;;28.43;4.57;;;;;;;6.22;100.00;101472.91;4794397;29;20026;-73
2023/01/30 10:38:32;;;;;;;20.95;3.45;;;;;;;6.29;100.00;101455.72;4793042;29;20555;-73
2023/01/30 10:41:20;;;;;;;24.35;5.28;;;;;;;6.33;100.00;101453.09;4784632;29;20043;-73
2023/01/30 10:43:58;;;;;;;22.00;5.15;;;;;;;6.33;100.00;101467.00;4792654;29;20026;-72
2023/01/30 10:46:46;;;;;;;25.42;5.40;;;;;;;6.35;100.00;101459.94;4785799;29;20050;-73
2023/01/30 10:49:24;;;;;;;19.65;5.78;;;;;;;6.39;100.00;101465.63;4792850;29;20087;-73
2023/01/30 10:52:09;;;;;;;25.02;4.80;;;;;;;6.38;100.00;101461.22;4789342;29;20074;-72
2023/01/30 10:54:46;;;;;;;25.23;5.53;;;;;;;6.38;100.00;101470.38;4793767;29;20503;-74
2023/01/30 10:57:31;;;;;;;23.35;4.57;;;;;;;6.47;100.00;101459.19;4794008;29;20125;-73
2023/01/30 11:00:04;;;;;;;34.40;5.30;;;;;;;6.49;100.00;101459.69;4794088;29;20043;-72
2023/01/30 11:02:57;;;;;;;28.30;5.93;;;;;;;6.42;100.00;101451.88;4792068;29;20475;-73
2023/01/30 11:05:26;;;;;;;26.05;5.85;;;;;;;6.36;100.00;101458.78;4793422;29;20137;-73
2023/01/30 11:07:52;;;;;;;25.23;5.95;;;;;;;6.44;100.00;101466.25;4796083;29;20057;-72
2023/01/30 11:10:23;;;;;;;25.02;4.65;;;;;;;6.47;100.00;101479.50;4797050;29;20322;-73
2023/01/30 11:12:54;;;;;;;25.58;5.45;;;;;;;6.52;100.00;101475.72;4796305;29;20045;-74
2023/01/30 11:15:23;;;;;;;27.83;4.82;;;;;;;6.50;100.00;101478.00;4795149;29;20043;-73
2023/01/30 11:17:49;;;;;;;19.27;4.97;;;;;;;6.50;100.00;101475.22;4797094;29;20056;-73
2023/01/30 11:20:18;;;;;;;32.15;5.75;;;;;;;6.63;100.00;101474.16;4795427;29;20030;-72
2023/01/30 11:22:49;;;;;;;20.38;4.88;;;;;;;6.60;100.00;101488.75;4788466;29;20031;-72
2023/01/30 11:25:21;;;;;;;23.80;5.95;;;;;;;6.66;100.00;101492.97;4785761;29;20038;-72
2023/01/30 11:27:55;;;;;;;31.13;6.20;;;;;;;6.70;100.00;101493.09;4792391;29;20043;-73
2023/01/30 11:30:26;;;;;;;22.83;6.10;;;;;;;6.70;100.00;101480.03;4790816;29;20455;-74
2023/01/30 11:33:04;;;;;;;30.77;8.05;;;;;;;6.74;100.00;101510.75;4791870;29;20487;-72
2023/01/30 11:35:31;;;;;;;23.90;7.53;;;;;;;6.79;100.00;101496.66;4795352;29;20035;-74
2023/01/30 11:38:21;;;;;;;40.00;9.13;;;;;;;6.75;100.00;101511.59;4792762;29;20030;-74
2023/01/30 11:40:46;;;;;;;18.08;4.65;;;;;;;6.77;100.00;101501.75;4786904;29;20034;-73
2023/01/30 11:43:13;;;;;;;34.65;6.57;;;;;;;6.83;100.00;101507.91;4787962;29;20487;-72
2023/01/30 11:45:43;;;;;;;27.42;5.50;;;;;;;6.72;100.00;101497.19;4790549;29;20045;-74
2023/01/30 11:48:18;;;;;;;21.88;5.35;;;;;;;6.86;100.00;101523.97;4788432;29;20046;-73
2023/01/30 11:50:47;;;;;;;27.60;5.25;;;;;;;6.97;100.00;101518.81;4797497;29;20087;-74
2023/01/30 11:53:19;;;;;;;24.80;5.53;;;;;;;6.98;100.00;101518.47;4793355;29;20517;-72
2023/01/30 11:55:45;;;;;;;29.33;5.82;;;;;;;7.01;100.00;101526.13;4794232;29;20035;-72
2023/01/30 11:58:12;;;;;;;47.13;7.38;;;;;;;7.00;100.00;101535.66;4790850;29;20046;-72
2023/01/30 12:00:41;;;;;;;28.85;5.22;;;;;;;6.94;100.00;101541.75;4794759;29;20035;-73
2023/01/30 12:03:11;;;;;;;29.33;5.75;;;;;;;6.86;100.00;101546.22;4787824;29;20474;-74
2023/01/30 12:05:41;;;;;;;28.55;6.78;;;;;;;6.81;100.00;101526.91;4788151;29;20035;-73
2023/01/30 12:08:24;;;;;;;25.17;6.05;;;;;;;6.80;100.00;101536.44;4797277;29;20380;-75
2023/01/30 12:10:54;;;;;;;38.47;6.80;;;;;;;6.91;100.00;101538.50;4790800;29;20279;-73
2023/01/30 12:13:38;;;;;;;28.40;4.70;;;;;;;7.17;100.00;101547.81;4798136;29;20067;-75
2023/01/30 12:16:25;;;;;;;29.70;5.70;;;;;;;7.00;100.00;101555.16;4792017;29;20487;-73
2023/01/30 12:19:12;;;;;;;45.47;7.78;;;;;;;7.04;100.00;101536.63;4791395;29;20045;-73
2023/01/30 12:21:53;;;;;;;32.97;5.15;;;;;;;6.91;100.00;101544.06;4796302;29;20491;-73
2023/01/30 12:24:44;;;;;;;25.70;6.43;;;;;;;6.90;100.00;101552.75;4791099;29;20039;-73
2023/01/30 12:27:28;;;;;;;42.20;6.93;;;;;;;6.89;100.00;101540.81;4781503;29;20440;-72
2023/01/30 12:30:07;;;;;;;28.50;5.63;;;;;;;6.86;100.00;101551.78;4791661;29;20046;-73
2023/01/30 12:32:34;;;;;;;35.58;5.97;;;;;;;6.92;100.00;101542.09;4790600;29;20050;-72
2023/01/30 12:35:00;;;;;;;30.48;6.07;;;;;;;6.98;100.00;101521.25;4791647;29;20031;-73
2023/01/30 12:37:44;;;;;;;33.55;5.70;;;;;;;7.01;100.00;101520.56;4793471;29;20043;-73
2023/01/30 12:40:25;;;;;;;40.80;6.25;;;;;;;7.05;100.00;101532.66;4792874;29;20035;-72
2023/01/30 12:43:18;;;;;;;31.20;5.90;;;;;;;7.00;100.00;101545.94;4789777;29;20099;-72
2023/01/30 12:46:06;;;;;;;24.83;4.93;;;;;;;6.96;100.00;101536.66;4790203;29;20043;-72
2023/01/30 12:48:48;;;;;;;30.73;5.03;;;;;;;6.85;100.00;101564.06;4796428;29;20038;-72
2023/01/30 12:51:42;;;;;;;30.65;5.68;;;;;;;6.79;100.00;101562.59;4795432;29;20503;-71
2023/01/30 12:54:29;;;;;;;30.35;5.00;;;;;;;6.75;100.00;101561.69;4783439;29;20522;-72
2023/01/30 12:57:12;;;;;;;22.80;4.72;;;;;;;6.80;100.00;101592.09;4794448;29;20505;-71
2023/01/30 12:59:53;;;;;;;40.50;6.18;;;;;;;6.88;100.00;101578.13;4799409;29;20034;-71
2023/01/30 13:02:55;;;;;;;21.40;6.07;;;;;;;6.89;100.00;101607.59;4797830;29;20111;-75
2023/01/30 13:05:33;;;;;;;27.92;4.68;;;;;;;6.85;100.00;101603.00;4801660;29;20499;-73
2023/01/30 13:08:27;;;;;;;27.67;5.35;;;;;;;6.80;100.00;101614.34;4794599;29;20031;-73
2023/01/30 13:11:20;;;;;;;35.58;5.95;;;;;;;6.80;100.00;101608.78;4786585;29;20037;-73
2023/01/30 13:14:13;;;;;;;43.80;6.80;;;;;;;6.72;100.00;101618.78;4781653;29;20069;-73
2023/01/30 13:16:56;;;;;;;28.95;8.35;;;;;;;6.75;100.00;101614.53;4788029;29;20043;-72
2023/01/30 13:19:38;;;;;;;18.98;5.72;;;;;;;6.70;100.00;101610.78;4792378;29;20172;-71
2023/01/30 13:22:16;;;;;;;25.48;6.60;;;;;;;6.74;100.00;101612.91;4792918;29;20046;-71
2023/01/30 13:25:06;;;;;;;29.25;5.25;;;;;;;6.69;100.00;101625.84;4799871;29;20426;-72
2023/01/30 13:27:36;;;;;;;31.23;6.80;;;;;;;6.75;100.00;101622.88;4794990;29;20057;-72
2023/01/30 13:30:09;;;;;;;26.42;6.15;;;;;;;6.72;100.00;101638.25;4798439;29;20063;-72
2023/01/30 13:32:49;;;;;;;23.45;4.90;;;;;;;6.71;100.00;101631.88;4789958;29;20041;-72
2023/01/30 13:35:19;;;;;;;36.60;6.90;;;;;;;6.76;100.00;101630.06;4794221;29;20117;-71
2023/01/30 13:37:47;;;;;;;28.85;5.20;;;;;;;6.71;100.00;101633.84;4797659;29;20117;-71
2023/01/30 13:40:20;;;;;;;32.97;5.95;;;;;;;6.81;100.00;101630.72;4795662;29;20039;-71
2023/01/30 13:42:54;;;;;;;38.15;8.25;;;;;;;6.80;100.00;101626.28;4796851;29;20439;-72
2023/01/30 13:45:23;;;;;;;22.27;5.80;;;;;;;6.78;100.00;101634.16;4789389;29;20070;-72
2023/01/30 13:48:22;;;;;;;36.40;7.38;;;;;;;6.81;100.00;101639.06;4799560;29;20054;-73
2023/01/30 13:51:21;;;;;;;23.77;6.00;;;;;;;6.74;100.00;101640.72;4790933;29;20422;-71
2023/01/30 13:53:55;;;;;;;25.05;7.25;;;;;;;6.82;100.00;101640.69;4795476;29;20175;-72
2023/01/30 13:56:44;;;;;;;29.42;5.15;;;;;;;6.88;100.00;101644.09;4791579;29;20031;-72
2023/01/30 13:59:34;;;;;;;23.10;5.00;;;;;;;6.85;100.00;101648.38;4796079;29;20046;-72
2023/01/30 14:02:02;;;;;;;28.55;5.18;;;;;;;6.88;100.00;101656.03;4796302;29;20150;-72
2023/01/30 14:04:39;;;;;;;29.38;5.15;;;;;;;6.89;100.00;101654.06;4796247;29;20153;-72
2023/01/30 14:07:11;;;;;;;34.83;4.70;;;;;;;7.10;100.00;101677.25;4797069;29;20486;-71
2023/01/30 14:09:41;;;;;;;37.15;8.50;;;;;;;6.94;100.00;101684.50;4792444;29;20506;-72
2023/01/30 14:12:22;;;;;;;28.60;5.30;;;;;;;6.94;100.00;101680.94;4805624;29;20065;-73
2023/01/30 14:15:02;;;;;;;27.38;6.20;;;;;;;6.82;100.00;101689.97;4796822;29;20038;-72
2023/01/30 14:17:29;;;;;;;20.55;5.07;;;;;;;6.81;100.00;101691.09;4788297;29;20480;-72
2023/01/30 14:20:19;;;;;;;21.45;7.22;;;;;;;6.80;100.00;101703.38;4807457;29;20394;-72
2023/01/30 14:22:55;;;;;;;25.75;6.32;;;;;;;6.81;100.00;101710.56;4795148;29;20138;-72
2023/01/30 14:25:29;;;;;;;24.95;5.20;;;;;;;6.74;100.00;101710.28;4793685;29;20377;-72
2023/01/30 14:28:03;;;;;;;32.08;5.70;;;;;;;6.75;100.00;101703.56;4797810;29;20591;-72
2023/01/30 14:30:35;;;;;;;32.30;6.18;;;;;;;6.72;100.00;101718.94;4790955;29;20105;-72
2023/01/30 14:33:03;;;;;;;26.88;6.68;;;;;;;6.69;100.00;101717.66;4795725;29;20499;-72
2023/01/30 14:35:30;;;;;;;19.90;3.85;;;;;;;6.65;100.00;101713.88;4796055;29;20387;-72
2023/01/30 14:38:05;;;;;;;26.63;6.03;;;;;;;6.70;100.00;101729.59;4790670;29;20039;-72
2023/01/30 14:40:33;;;;;;;25.92;5.35;;;;;;;6.69;100.00;101753.00;4789112;29;20464;-72
2023/01/30 14:43:11;;;;;;;20.02;4.63;;;;;;;6.72;100.00;101742.03;4793596;29;20750;-72
2023/01/30 14:46:00;;;;;;;32.25;7.05;;;;;;;6.78;100.00;101739.06;4798288;29;20450;-71
2023/01/30 14:48:31;;;;;;;64.72;6.53;;;;;;;6.77;100.00;101748.56;4793430;29;20050;-72
2023/01/30 14:51:24;;;;;;;24.25;4.88;;;;;;;6.79;100.00;101769.34;4788027;29;20053;-72
2023/01/30 14:53:57;;;;;;;30.85;6.50;;;;;;;6.77;100.00;101754.13;4789073;29;20069;-72
2023/01/30 14:56:57;;;;;;;27.23;6.95;;;;;;;6.79;100.00;101746.25;4784708;29;20034;-72
2023/01/30 14:59:29;;;;;;;26.13;4.78;;;;;;;6.74;100.00;101760.34;4787091;29;20037;-72
2023/01/30 15:02:05;;;;;;;27.42;4.80;;;;;;;6.71;100.00;101773.78;4792095;29;20035;-72
2023/01/30 15:04:39;;;;;;;21.25;5.30;;;;;;;6.67;100.00;101772.81;4783730;29;20035;-72
2023/01/30 15:07:10;;;;;;;31.73;5.95;;;;;;;6.70;100.00;101783.28;4796413;29;20039;-72
2023/01/30 15:09:39;;;;;;;24.30;5.47;;;;;;;6.64;100.00;101787.38;4790613;29;20057;-72
2023/01/30 15:12:17;;;;;;;41.63;7.05;;;;;;;6.60;100.00;101789.19;4795964;29;20475;-72
2023/01/30 15:15:22;;;;;;;34.28;6.25;;;;;;;6.57;100.00;101806.50;4793751;29;20097;-73
2023/01/30 15:17:54;;;;;;;34.63;6.82;;;;;;;6.53;100.00;101813.06;4787122;29;20512;-72
2023/01/30 15:20:50;;;;;;;25.70;4.68;;;;;;;6.50;100.00;101820.13;4794044;29;20031;-72
2023/01/30 15:23:45;;;;;;;28.85;7.22;;;;;;;6.47;100.00;101817.97;4791216;29;20049;-71
2023/01/30 15:26:32;;;;;;;30.23;5.93;;;;;;;6.41;100.00;101822.91;4790821;29;20528;-73
2023/01/30 15:29:23;;;;;;;49.80;7.60;;;;;;;6.40;100.00;101823.22;4796418;29;20437;-72
2023/01/30 15:32:14;;;;;;;30.25;7.30;;;;;;;6.39;100.00;101827.13;4792552;29;20821;-72
2023/01/30 15:34:49;;;;;;;30.55;6.07;;;;;;;6.34;100.00;101858.69;4789969;29;20027;-72
2023/01/30 15:37:45;;;;;;;37.80;7.47;;;;;;;6.30;100.00;101852.16;4792864;29;20077;-72
2023/01/30 15:40:14;;;;;;;31.15;8.13;;;;;;;6.28;100.00;101855.28;4787078;29;20051;-71
2023/01/30 15:43:00;;;;;;;33.15;6.03;;;;;;;6.26;100.00;101857.56;4790573;29;20558;-72
2023/01/30 15:45:42;;;;;;;27.23;5.78;;;;;;;6.24;100.00;101857.06;4791528;29;20042;-72
2023/01/30 15:48:16;;;;;;;26.75;7.43;;;;;;;6.24;100.00;101862.63;4786840;29;20075;-72
2023/01/30 15:50:50;;;;;;;25.23;4.88;;;;;;;6.20;100.00;101872.75;4792388;29;20059;-71